sensor_id;sensor_type;location;lat;lon;timestamp;P1;durP1;ratioP1;P2;durP2;ratioP2
77061;SDS011;65989;51.686;5.138;2023-07-31T00:01:17;34.00;;;10.03;;
77061;SDS011;65989;51.686;5.138;2023-07-31T00:03:42;41.60;;;10.40;;
77061;SDS011;65989;51.686;5.138;2023-07-31T00:06:07;40.50;;;10.17;;
77061;SDS011;65989;51.686;5.138;2023-07-31T00:08:33;37.20;;;9.73;;
77061;SDS011;65989;51.686;5.138;2023-07-31T00:10:58;34.73;;;9.30;;
77061;SDS011;65989;51.686;5.138;2023-07-31T00:13:23;39.30;;;9.43;;
77061;SDS011;65989;51.686;5.138;2023-07-31T00:15:48;35.23;;;8.77;;
77061;SDS011;65989;51.686;5.138;2023-07-31T00:18:14;33.77;;;9.90;;
77061;SDS011;65989;51.686;5.138;2023-07-31T00:20:39;35.57;;;9.30;;
77061;SDS011;65989;51.686;5.138;2023-07-31T00:23:04;39.40;;;9.70;;
77061;SDS011;65989;51.686;5.138;2023-07-31T00:25:29;34.77;;;9.20;;
77061;SDS011;65989;51.686;5.138;2023-07-31T00:27:55;33.67;;;8.70;;
77061;SDS011;65989;51.686;5.138;2023-07-31T00:30:20;31.33;;;8.93;;
77061;SDS011;65989;51.686;5.138;2023-07-31T00:32:46;36.88;;;8.82;;
77061;SDS011;65989;51.686;5.138;2023-07-31T00:35:11;29.60;;;8.50;;
77061;SDS011;65989;51.686;5.138;2023-07-31T00:37:36;26.77;;;8.27;;
77061;SDS011;65989;51.686;5.138;2023-07-31T00:40:01;28.80;;;8.23;;
77061;SDS011;65989;51.686;5.138;2023-07-31T00:42:28;32.35;;;8.07;;
77061;SDS011;65989;51.686;5.138;2023-07-31T00:44:53;35.50;;;8.50;;
77061;SDS011;65989;51.686;5.138;2023-07-31T00:47:19;29.50;;;8.63;;
77061;SDS011;65989;51.686;5.138;2023-07-31T00:49:44;29.87;;;8.30;;
77061;SDS011;65989;51.686;5.138;2023-07-31T00:52:10;33.53;;;9.30;;
77061;SDS011;65989;51.686;5.138;2023-07-31T00:54:35;38.60;;;9.13;;
77061;SDS011;65989;51.686;5.138;2023-07-31T00:57:00;30.70;;;9.07;;
77061;SDS011;65989;51.686;5.138;2023-07-31T00:59:25;35.70;;;8.67;;
77061;SDS011;65989;51.686;5.138;2023-07-31T01:01:51;33.03;;;8.53;;
77061;SDS011;65989;51.686;5.138;2023-07-31T01:04:17;32.60;;;8.47;;
77061;SDS011;65989;51.686;5.138;2023-07-31T01:06:48;31.80;;;8.50;;
77061;SDS011;65989;51.686;5.138;2023-07-31T01:11:43;27.87;;;8.30;;
77061;SDS011;65989;51.686;5.138;2023-07-31T01:14:11;35.17;;;8.25;;
77061;SDS011;65989;51.686;5.138;2023-07-31T01:16:36;32.00;;;8.03;;
77061;SDS011;65989;51.686;5.138;2023-07-31T01:19:02;28.10;;;7.77;;
77061;SDS011;65989;51.686;5.138;2023-07-31T01:26:33;29.20;;;8.70;;
77061;SDS011;65989;51.686;5.138;2023-07-31T01:31:24;26.87;;;7.57;;
77061;SDS011;65989;51.686;5.138;2023-07-31T01:33:51;24.30;;;7.43;;
77061;SDS011;65989;51.686;5.138;2023-07-31T01:36:17;25.67;;;7.67;;
77061;SDS011;65989;51.686;5.138;2023-07-31T01:38:43;24.97;;;7.03;;
77061;SDS011;65989;51.686;5.138;2023-07-31T01:41:08;29.30;;;8.10;;
77061;SDS011;65989;51.686;5.138;2023-07-31T01:43:33;28.53;;;7.50;;
77061;SDS011;65989;51.686;5.138;2023-07-31T01:45:58;23.87;;;7.50;;
77061;SDS011;65989;51.686;5.138;2023-07-31T01:48:24;28.13;;;8.00;;
77061;SDS011;65989;51.686;5.138;2023-07-31T01:50:49;28.57;;;8.27;;
77061;SDS011;65989;51.686;5.138;2023-07-31T01:53:14;29.50;;;7.67;;
77061;SDS011;65989;51.686;5.138;2023-07-31T01:55:40;26.83;;;7.93;;
77061;SDS011;65989;51.686;5.138;2023-07-31T01:58:05;31.60;;;7.80;;
77061;SDS011;65989;51.686;5.138;2023-07-31T02:00:30;31.80;;;8.10;;
77061;SDS011;65989;51.686;5.138;2023-07-31T02:02:55;30.80;;;8.17;;
77061;SDS011;65989;51.686;5.138;2023-07-31T02:05:21;24.40;;;7.37;;
77061;SDS011;65989;51.686;5.138;2023-07-31T02:07:46;30.13;;;7.60;;
77061;SDS011;65989;51.686;5.138;2023-07-31T02:10:11;28.83;;;7.90;;
77061;SDS011;65989;51.686;5.138;2023-07-31T02:12:37;31.50;;;7.70;;
77061;SDS011;65989;51.686;5.138;2023-07-31T02:15:02;28.20;;;7.15;;
77061;SDS011;65989;51.686;5.138;2023-07-31T02:17:27;30.00;;;7.23;;
77061;SDS011;65989;51.686;5.138;2023-07-31T02:19:54;27.05;;;8.02;;
77061;SDS011;65989;51.686;5.138;2023-07-31T02:22:19;27.70;;;7.93;;
77061;SDS011;65989;51.686;5.138;2023-07-31T02:24:44;30.33;;;8.13;;
77061;SDS011;65989;51.686;5.138;2023-07-31T02:27:10;29.40;;;8.07;;
77061;SDS011;65989;51.686;5.138;2023-07-31T02:29:35;22.00;;;7.50;;
77061;SDS011;65989;51.686;5.138;2023-07-31T02:32:00;30.27;;;7.73;;
77061;SDS011;65989;51.686;5.138;2023-07-31T02:34:25;26.80;;;7.47;;
77061;SDS011;65989;51.686;5.138;2023-07-31T02:36:50;25.77;;;7.33;;
77061;SDS011;65989;51.686;5.138;2023-07-31T02:39:16;26.27;;;7.53;;
77061;SDS011;65989;51.686;5.138;2023-07-31T02:41:41;29.10;;;7.50;;
77061;SDS011;65989;51.686;5.138;2023-07-31T02:44:06;31.80;;;8.50;;
77061;SDS011;65989;51.686;5.138;2023-07-31T02:46:31;27.17;;;7.47;;
77061;SDS011;65989;51.686;5.138;2023-07-31T02:48:57;27.90;;;7.13;;
77061;SDS011;65989;51.686;5.138;2023-07-31T02:51:22;34.40;;;7.40;;
77061;SDS011;65989;51.686;5.138;2023-07-31T02:53:47;25.00;;;7.03;;
77061;SDS011;65989;51.686;5.138;2023-07-31T02:56:13;32.67;;;7.63;;
77061;SDS011;65989;51.686;5.138;2023-07-31T02:58:38;23.50;;;6.97;;
77061;SDS011;65989;51.686;5.138;2023-07-31T03:01:03;24.77;;;7.43;;
77061;SDS011;65989;51.686;5.138;2023-07-31T03:03:28;21.57;;;6.87;;
77061;SDS011;65989;51.686;5.138;2023-07-31T03:05:54;27.13;;;7.40;;
77061;SDS011;65989;51.686;5.138;2023-07-31T03:08:19;26.67;;;7.10;;
77061;SDS011;65989;51.686;5.138;2023-07-31T03:10:45;25.23;;;7.63;;
77061;SDS011;65989;51.686;5.138;2023-07-31T03:13:10;20.87;;;6.53;;
77061;SDS011;65989;51.686;5.138;2023-07-31T03:15:35;27.60;;;7.20;;
77061;SDS011;65989;51.686;5.138;2023-07-31T03:18:00;26.07;;;7.27;;
77061;SDS011;65989;51.686;5.138;2023-07-31T03:20:25;25.67;;;7.27;;
77061;SDS011;65989;51.686;5.138;2023-07-31T03:22:53;26.43;;;6.83;;
77061;SDS011;65989;51.686;5.138;2023-07-31T03:25:18;24.23;;;7.78;;
77061;SDS011;65989;51.686;5.138;2023-07-31T03:27:44;26.33;;;7.73;;
77061;SDS011;65989;51.686;5.138;2023-07-31T03:30:09;27.90;;;8.00;;
77061;SDS011;65989;51.686;5.138;2023-07-31T03:32:34;24.43;;;7.10;;
77061;SDS011;65989;51.686;5.138;2023-07-31T03:34:59;23.53;;;6.93;;
77061;SDS011;65989;51.686;5.138;2023-07-31T03:37:25;19.93;;;6.87;;
77061;SDS011;65989;51.686;5.138;2023-07-31T03:39:51;22.73;;;6.85;;
77061;SDS011;65989;51.686;5.138;2023-07-31T03:42:16;27.67;;;7.47;;
77061;SDS011;65989;51.686;5.138;2023-07-31T03:44:41;19.77;;;6.80;;
77061;SDS011;65989;51.686;5.138;2023-07-31T03:47:06;25.53;;;7.80;;
77061;SDS011;65989;51.686;5.138;2023-07-31T03:49:32;26.83;;;7.90;;
77061;SDS011;65989;51.686;5.138;2023-07-31T03:51:57;21.50;;;6.90;;
77061;SDS011;65989;51.686;5.138;2023-07-31T03:54:22;25.60;;;7.60;;
77061;SDS011;65989;51.686;5.138;2023-07-31T03:56:47;22.37;;;6.63;;
77061;SDS011;65989;51.686;5.138;2023-07-31T03:59:13;24.07;;;6.80;;
77061;SDS011;65989;51.686;5.138;2023-07-31T04:01:38;20.23;;;6.70;;
77061;SDS011;65989;51.686;5.138;2023-07-31T04:04:03;24.57;;;7.20;;
77061;SDS011;65989;51.686;5.138;2023-07-31T04:06:28;21.53;;;7.13;;
77061;SDS011;65989;51.686;5.138;2023-07-31T04:08:54;19.27;;;7.30;;
77061;SDS011;65989;51.686;5.138;2023-07-31T04:11:19;19.90;;;7.00;;
77061;SDS011;65989;51.686;5.138;2023-07-31T04:13:44;20.80;;;6.50;;
77061;SDS011;65989;51.686;5.138;2023-07-31T04:16:09;21.67;;;7.10;;
77061;SDS011;65989;51.686;5.138;2023-07-31T04:18:35;22.70;;;6.90;;
77061;SDS011;65989;51.686;5.138;2023-07-31T04:21:00;23.00;;;6.40;;
77061;SDS011;65989;51.686;5.138;2023-07-31T04:23:26;20.38;;;6.47;;
77061;SDS011;65989;51.686;5.138;2023-07-31T04:25:51;19.33;;;6.33;;
77061;SDS011;65989;51.686;5.138;2023-07-31T04:28:17;25.20;;;6.70;;
77061;SDS011;65989;51.686;5.138;2023-07-31T04:30:42;24.63;;;6.93;;
77061;SDS011;65989;51.686;5.138;2023-07-31T04:33:07;16.93;;;6.40;;
77061;SDS011;65989;51.686;5.138;2023-07-31T04:35:32;21.27;;;6.70;;
77061;SDS011;65989;51.686;5.138;2023-07-31T04:37:58;21.13;;;6.50;;
77061;SDS011;65989;51.686;5.138;2023-07-31T04:40:23;24.73;;;6.93;;
77061;SDS011;65989;51.686;5.138;2023-07-31T04:42:48;25.10;;;7.33;;
77061;SDS011;65989;51.686;5.138;2023-07-31T04:45:13;20.47;;;6.70;;
77061;SDS011;65989;51.686;5.138;2023-07-31T04:47:39;20.30;;;6.33;;
77061;SDS011;65989;51.686;5.138;2023-07-31T04:50:04;18.17;;;6.50;;
77061;SDS011;65989;51.686;5.138;2023-07-31T04:52:29;23.30;;;6.97;;
77061;SDS011;65989;51.686;5.138;2023-07-31T04:54:55;21.33;;;7.07;;
77061;SDS011;65989;51.686;5.138;2023-07-31T04:57:20;29.93;;;6.93;;
77061;SDS011;65989;51.686;5.138;2023-07-31T04:59:45;20.27;;;6.30;;
77061;SDS011;65989;51.686;5.138;2023-07-31T05:02:11;16.80;;;5.77;;
77061;SDS011;65989;51.686;5.138;2023-07-31T05:04:37;18.80;;;6.30;;
77061;SDS011;65989;51.686;5.138;2023-07-31T05:07:02;23.30;;;6.97;;
77061;SDS011;65989;51.686;5.138;2023-07-31T05:09:27;25.50;;;6.67;;
77061;SDS011;65989;51.686;5.138;2023-07-31T05:11:52;20.10;;;6.43;;
77061;SDS011;65989;51.686;5.138;2023-07-31T05:14:18;21.57;;;6.03;;
77061;SDS011;65989;51.686;5.138;2023-07-31T05:16:43;22.00;;;6.60;;
77061;SDS011;65989;51.686;5.138;2023-07-31T05:19:08;15.93;;;5.40;;
77061;SDS011;65989;51.686;5.138;2023-07-31T05:21:33;19.73;;;6.50;;
77061;SDS011;65989;51.686;5.138;2023-07-31T05:23:59;22.90;;;6.30;;
77061;SDS011;65989;51.686;5.138;2023-07-31T05:26:24;23.77;;;6.97;;
77061;SDS011;65989;51.686;5.138;2023-07-31T05:28:49;21.50;;;6.57;;
77061;SDS011;65989;51.686;5.138;2023-07-31T05:31:14;26.63;;;6.70;;
77061;SDS011;65989;51.686;5.138;2023-07-31T05:33:40;18.90;;;6.30;;
77061;SDS011;65989;51.686;5.138;2023-07-31T05:36:05;18.10;;;6.23;;
77061;SDS011;65989;51.686;5.138;2023-07-31T05:38:30;24.63;;;6.90;;
77061;SDS011;65989;51.686;5.138;2023-07-31T05:40:56;22.03;;;6.40;;
77061;SDS011;65989;51.686;5.138;2023-07-31T05:43:21;17.93;;;6.23;;
77061;SDS011;65989;51.686;5.138;2023-07-31T05:45:46;19.60;;;6.30;;
77061;SDS011;65989;51.686;5.138;2023-07-31T05:48:12;15.27;;;5.60;;
77061;SDS011;65989;51.686;5.138;2023-07-31T05:50:37;15.57;;;6.07;;
77061;SDS011;65989;51.686;5.138;2023-07-31T05:53:04;13.90;;;5.93;;
77061;SDS011;65989;51.686;5.138;2023-07-31T05:55:30;19.83;;;5.53;;
77061;SDS011;65989;51.686;5.138;2023-07-31T05:57:55;18.83;;;6.10;;
77061;SDS011;65989;51.686;5.138;2023-07-31T06:00:20;14.10;;;5.57;;
77061;SDS011;65989;51.686;5.138;2023-07-31T06:02:47;13.25;;;5.50;;
77061;SDS011;65989;51.686;5.138;2023-07-31T06:05:12;13.38;;;5.03;;
77061;SDS011;65989;51.686;5.138;2023-07-31T06:07:37;14.13;;;5.17;;
77061;SDS011;65989;51.686;5.138;2023-07-31T06:10:03;13.50;;;5.00;;
77061;SDS011;65989;51.686;5.138;2023-07-31T06:12:29;14.20;;;5.00;;
77061;SDS011;65989;51.686;5.138;2023-07-31T06:14:55;12.03;;;4.97;;
77061;SDS011;65989;51.686;5.138;2023-07-31T06:17:20;11.40;;;4.83;;
77061;SDS011;65989;51.686;5.138;2023-07-31T06:19:46;12.80;;;4.65;;
77061;SDS011;65989;51.686;5.138;2023-07-31T06:22:11;10.07;;;4.30;;
77061;SDS011;65989;51.686;5.138;2023-07-31T06:24:36;11.87;;;4.40;;
77061;SDS011;65989;51.686;5.138;2023-07-31T06:27:02;10.60;;;4.00;;
77061;SDS011;65989;51.686;5.138;2023-07-31T06:29:29;11.77;;;4.60;;
77061;SDS011;65989;51.686;5.138;2023-07-31T06:31:54;13.13;;;4.87;;
77061;SDS011;65989;51.686;5.138;2023-07-31T06:34:19;10.67;;;4.70;;
77061;SDS011;65989;51.686;5.138;2023-07-31T06:36:44;9.50;;;4.37;;
77061;SDS011;65989;51.686;5.138;2023-07-31T06:39:10;14.07;;;4.57;;
77061;SDS011;65989;51.686;5.138;2023-07-31T06:41:35;9.10;;;4.80;;
77061;SDS011;65989;51.686;5.138;2023-07-31T06:44:00;9.87;;;4.70;;
77061;SDS011;65989;51.686;5.138;2023-07-31T06:46:25;12.00;;;4.67;;
77061;SDS011;65989;51.686;5.138;2023-07-31T06:48:51;8.87;;;4.60;;
77061;SDS011;65989;51.686;5.138;2023-07-31T06:51:16;8.67;;;4.63;;
77061;SDS011;65989;51.686;5.138;2023-07-31T06:53:41;8.50;;;4.60;;
77061;SDS011;65989;51.686;5.138;2023-07-31T06:56:07;9.98;;;4.63;;
77061;SDS011;65989;51.686;5.138;2023-07-31T06:58:33;9.40;;;4.47;;
77061;SDS011;65989;51.686;5.138;2023-07-31T07:00:58;9.00;;;4.77;;
77061;SDS011;65989;51.686;5.138;2023-07-31T07:03:23;8.33;;;3.97;;
77061;SDS011;65989;51.686;5.138;2023-07-31T07:05:49;9.00;;;4.20;;
77061;SDS011;65989;51.686;5.138;2023-07-31T07:08:14;7.70;;;4.13;;
77061;SDS011;65989;51.686;5.138;2023-07-31T07:10:39;5.83;;;3.80;;
77061;SDS011;65989;51.686;5.138;2023-07-31T07:13:05;8.17;;;3.87;;
77061;SDS011;65989;51.686;5.138;2023-07-31T07:15:30;7.50;;;3.83;;
77061;SDS011;65989;51.686;5.138;2023-07-31T07:17:55;9.13;;;4.17;;
77061;SDS011;65989;51.686;5.138;2023-07-31T07:20:21;7.28;;;3.85;;
77061;SDS011;65989;51.686;5.138;2023-07-31T07:22:46;6.50;;;3.87;;
77061;SDS011;65989;51.686;5.138;2023-07-31T07:25:11;8.17;;;3.87;;
77061;SDS011;65989;51.686;5.138;2023-07-31T07:27:37;7.10;;;3.70;;
77061;SDS011;65989;51.686;5.138;2023-07-31T07:30:02;8.13;;;3.90;;
77061;SDS011;65989;51.686;5.138;2023-07-31T07:32:27;8.97;;;4.00;;
77061;SDS011;65989;51.686;5.138;2023-07-31T07:34:52;6.70;;;3.70;;
77061;SDS011;65989;51.686;5.138;2023-07-31T07:37:18;7.40;;;4.00;;
77061;SDS011;65989;51.686;5.138;2023-07-31T07:39:43;7.93;;;4.07;;
77061;SDS011;65989;51.686;5.138;2023-07-31T07:42:09;7.83;;;4.23;;
77061;SDS011;65989;51.686;5.138;2023-07-31T07:44:34;8.60;;;4.50;;
77061;SDS011;65989;51.686;5.138;2023-07-31T07:46:59;7.60;;;4.40;;
77061;SDS011;65989;51.686;5.138;2023-07-31T07:49:24;8.27;;;4.53;;
77061;SDS011;65989;51.686;5.138;2023-07-31T07:51:50;9.03;;;4.93;;
77061;SDS011;65989;51.686;5.138;2023-07-31T07:54:15;12.43;;;5.03;;
77061;SDS011;65989;51.686;5.138;2023-07-31T07:56:42;11.18;;;5.20;;
77061;SDS011;65989;51.686;5.138;2023-07-31T07:59:07;10.57;;;5.33;;
77061;SDS011;65989;51.686;5.138;2023-07-31T08:01:32;10.27;;;5.33;;
77061;SDS011;65989;51.686;5.138;2023-07-31T08:03:57;11.37;;;5.60;;
77061;SDS011;65989;51.686;5.138;2023-07-31T08:06:23;12.70;;;5.80;;
77061;SDS011;65989;51.686;5.138;2023-07-31T08:08:48;10.97;;;6.50;;
77061;SDS011;65989;51.686;5.138;2023-07-31T08:11:13;10.60;;;6.57;;
77061;SDS011;65989;51.686;5.138;2023-07-31T08:13:38;13.33;;;6.90;;
77061;SDS011;65989;51.686;5.138;2023-07-31T08:16:04;10.93;;;6.37;;
77061;SDS011;65989;51.686;5.138;2023-07-31T08:18:30;13.50;;;6.63;;
77061;SDS011;65989;51.686;5.138;2023-07-31T08:20:55;11.77;;;6.72;;
77061;SDS011;65989;51.686;5.138;2023-07-31T08:23:21;12.00;;;7.07;;
77061;SDS011;65989;51.686;5.138;2023-07-31T08:25:46;12.37;;;7.50;;
77061;SDS011;65989;51.686;5.138;2023-07-31T08:28:11;11.30;;;7.60;;
77061;SDS011;65989;51.686;5.138;2023-07-31T08:30:37;11.50;;;7.67;;
77061;SDS011;65989;51.686;5.138;2023-07-31T08:33:02;12.90;;;7.83;;
77061;SDS011;65989;51.686;5.138;2023-07-31T08:35:27;13.68;;;7.80;;
77061;SDS011;65989;51.686;5.138;2023-07-31T08:37:53;12.53;;;8.47;;
77061;SDS011;65989;51.686;5.138;2023-07-31T08:40:18;16.57;;;8.93;;
77061;SDS011;65989;51.686;5.138;2023-07-31T08:42:44;14.57;;;8.27;;
77061;SDS011;65989;51.686;5.138;2023-07-31T08:45:12;14.45;;;8.60;;
77061;SDS011;65989;51.686;5.138;2023-07-31T08:47:38;14.77;;;8.93;;
77061;SDS011;65989;51.686;5.138;2023-07-31T08:50:04;14.53;;;9.13;;
77061;SDS011;65989;51.686;5.138;2023-07-31T08:52:29;14.53;;;9.43;;
77061;SDS011;65989;51.686;5.138;2023-07-31T08:54:54;20.40;;;10.00;;
77061;SDS011;65989;51.686;5.138;2023-07-31T08:57:20;16.57;;;9.47;;
77061;SDS011;65989;51.686;5.138;2023-07-31T08:59:45;16.23;;;9.93;;
77061;SDS011;65989;51.686;5.138;2023-07-31T09:02:11;17.60;;;9.90;;
77061;SDS011;65989;51.686;5.138;2023-07-31T09:04:36;15.45;;;9.93;;
77061;SDS011;65989;51.686;5.138;2023-07-31T09:07:03;14.97;;;10.50;;
77061;SDS011;65989;51.686;5.138;2023-07-31T09:09:29;15.93;;;10.45;;
77061;SDS011;65989;51.686;5.138;2023-07-31T09:11:55;18.40;;;9.50;;
77061;SDS011;65989;51.686;5.138;2023-07-31T09:14:21;17.88;;;9.15;;
77061;SDS011;65989;51.686;5.138;2023-07-31T09:16:53;13.03;;;8.63;;
77061;SDS011;65989;51.686;5.138;2023-07-31T09:19:35;17.10;;;9.23;;
77061;SDS011;65989;51.686;5.138;2023-07-31T09:22:04;19.73;;;9.52;;
77061;SDS011;65989;51.686;5.138;2023-07-31T09:24:30;15.85;;;9.02;;
77061;SDS011;65989;51.686;5.138;2023-07-31T09:26:56;13.80;;;7.87;;
77061;SDS011;65989;51.686;5.138;2023-07-31T09:29:22;17.45;;;8.77;;
77061;SDS011;65989;51.686;5.138;2023-07-31T09:31:47;15.60;;;9.32;;
77061;SDS011;65989;51.686;5.138;2023-07-31T09:34:13;15.77;;;7.93;;
77061;SDS011;65989;51.686;5.138;2023-07-31T09:39:08;12.98;;;7.50;;
77061;SDS011;65989;51.686;5.138;2023-07-31T09:41:36;12.63;;;7.80;;
77061;SDS011;65989;51.686;5.138;2023-07-31T09:44:01;13.52;;;7.78;;
77061;SDS011;65989;51.686;5.138;2023-07-31T09:46:26;12.93;;;7.80;;
77061;SDS011;65989;51.686;5.138;2023-07-31T09:48:52;14.75;;;7.22;;
77061;SDS011;65989;51.686;5.138;2023-07-31T09:51:17;12.57;;;7.00;;
77061;SDS011;65989;51.686;5.138;2023-07-31T09:53:50;14.03;;;6.40;;
77061;SDS011;65989;51.686;5.138;2023-07-31T09:56:16;12.07;;;6.80;;
77061;SDS011;65989;51.686;5.138;2023-07-31T09:58:41;11.10;;;6.47;;
77061;SDS011;65989;51.686;5.138;2023-07-31T10:01:07;10.07;;;5.93;;
77061;SDS011;65989;51.686;5.138;2023-07-31T10:03:32;14.27;;;6.40;;
77061;SDS011;65989;51.686;5.138;2023-07-31T10:05:58;11.93;;;6.23;;
77061;SDS011;65989;51.686;5.138;2023-07-31T10:08:29;10.52;;;5.82;;
77061;SDS011;65989;51.686;5.138;2023-07-31T10:10:55;11.07;;;6.93;;
77061;SDS011;65989;51.686;5.138;2023-07-31T10:13:23;10.93;;;6.00;;
77061;SDS011;65989;51.686;5.138;2023-07-31T10:15:49;13.15;;;6.05;;
77061;SDS011;65989;51.686;5.138;2023-07-31T10:18:14;11.70;;;5.85;;
77061;SDS011;65989;51.686;5.138;2023-07-31T10:20:40;10.97;;;5.70;;
77061;SDS011;65989;51.686;5.138;2023-07-31T10:23:06;8.95;;;5.40;;
77061;SDS011;65989;51.686;5.138;2023-07-31T10:25:31;9.47;;;4.87;;
77061;SDS011;65989;51.686;5.138;2023-07-31T10:27:57;10.87;;;5.63;;
77061;SDS011;65989;51.686;5.138;2023-07-31T10:30:27;11.33;;;5.70;;
77061;SDS011;65989;51.686;5.138;2023-07-31T10:32:53;10.32;;;5.13;;
77061;SDS011;65989;51.686;5.138;2023-07-31T10:35:19;9.98;;;4.88;;
77061;SDS011;65989;51.686;5.138;2023-07-31T10:37:47;10.10;;;5.53;;
77061;SDS011;65989;51.686;5.138;2023-07-31T10:40:13;7.80;;;4.93;;
77061;SDS011;65989;51.686;5.138;2023-07-31T10:42:47;9.82;;;4.90;;
77061;SDS011;65989;51.686;5.138;2023-07-31T10:45:13;8.23;;;4.77;;
77061;SDS011;65989;51.686;5.138;2023-07-31T10:50:16;7.83;;;4.67;;
77061;SDS011;65989;51.686;5.138;2023-07-31T10:52:44;11.93;;;4.65;;
77061;SDS011;65989;51.686;5.138;2023-07-31T10:55:15;9.43;;;5.25;;
77061;SDS011;65989;51.686;5.138;2023-07-31T10:57:44;7.45;;;4.88;;
77061;SDS011;65989;51.686;5.138;2023-07-31T11:05:40;9.77;;;4.90;;
77061;SDS011;65989;51.686;5.138;2023-07-31T11:10:37;9.93;;;5.10;;
77061;SDS011;65989;51.686;5.138;2023-07-31T11:13:04;9.63;;;5.00;;
77061;SDS011;65989;51.686;5.138;2023-07-31T11:15:29;10.80;;;5.10;;
77061;SDS011;65989;51.686;5.138;2023-07-31T11:17:55;9.63;;;4.83;;
77061;SDS011;65989;51.686;5.138;2023-07-31T11:20:23;9.30;;;5.85;;
77061;SDS011;65989;51.686;5.138;2023-07-31T11:22:48;8.63;;;4.70;;
77061;SDS011;65989;51.686;5.138;2023-07-31T11:25:14;8.77;;;5.10;;
77061;SDS011;65989;51.686;5.138;2023-07-31T11:27:39;8.32;;;5.40;;
77061;SDS011;65989;51.686;5.138;2023-07-31T11:30:06;12.25;;;5.60;;
77061;SDS011;65989;51.686;5.138;2023-07-31T11:32:32;9.53;;;5.40;;
77061;SDS011;65989;51.686;5.138;2023-07-31T11:34:57;8.07;;;4.97;;
77061;SDS011;65989;51.686;5.138;2023-07-31T11:37:23;9.03;;;5.80;;
77061;SDS011;65989;51.686;5.138;2023-07-31T11:40:01;9.52;;;5.68;;
77061;SDS011;65989;51.686;5.138;2023-07-31T11:42:26;12.02;;;5.68;;
77061;SDS011;65989;51.686;5.138;2023-07-31T11:44:51;8.77;;;5.20;;
77061;SDS011;65989;51.686;5.138;2023-07-31T11:47:16;12.47;;;5.60;;
77061;SDS011;65989;51.686;5.138;2023-07-31T11:49:43;11.87;;;5.20;;
77061;SDS011;65989;51.686;5.138;2023-07-31T11:52:08;9.00;;;5.60;;
77061;SDS011;65989;51.686;5.138;2023-07-31T11:54:34;9.27;;;5.20;;
77061;SDS011;65989;51.686;5.138;2023-07-31T11:56:59;9.60;;;5.20;;
77061;SDS011;65989;51.686;5.138;2023-07-31T11:59:26;9.57;;;5.63;;
77061;SDS011;65989;51.686;5.138;2023-07-31T12:01:51;10.67;;;5.53;;
77061;SDS011;65989;51.686;5.138;2023-07-31T12:04:18;11.32;;;5.32;;
77061;SDS011;65989;51.686;5.138;2023-07-31T12:06:44;9.43;;;5.53;;
77061;SDS011;65989;51.686;5.138;2023-07-31T12:09:10;10.97;;;5.57;;
77061;SDS011;65989;51.686;5.138;2023-07-31T12:11:47;12.63;;;5.97;;
77061;SDS011;65989;51.686;5.138;2023-07-31T12:14:23;9.93;;;6.18;;
77061;SDS011;65989;51.686;5.138;2023-07-31T12:16:52;8.68;;;5.78;;
77061;SDS011;65989;51.686;5.138;2023-07-31T12:19:18;11.48;;;6.00;;
77061;SDS011;65989;51.686;5.138;2023-07-31T12:21:44;11.17;;;5.93;;
77061;SDS011;65989;51.686;5.138;2023-07-31T12:24:09;10.73;;;6.27;;
77061;SDS011;65989;51.686;5.138;2023-07-31T12:26:35;9.80;;;6.50;;
77061;SDS011;65989;51.686;5.138;2023-07-31T12:29:00;10.05;;;6.10;;
77061;SDS011;65989;51.686;5.138;2023-07-31T12:31:27;10.43;;;6.20;;
77061;SDS011;65989;51.686;5.138;2023-07-31T12:33:52;10.88;;;6.30;;
77061;SDS011;65989;51.686;5.138;2023-07-31T12:36:19;9.20;;;5.50;;
77061;SDS011;65989;51.686;5.138;2023-07-31T12:38:45;11.05;;;5.55;;
77061;SDS011;65989;51.686;5.138;2023-07-31T12:41:11;11.83;;;6.07;;
77061;SDS011;65989;51.686;5.138;2023-07-31T12:43:37;9.60;;;6.03;;
77061;SDS011;65989;51.686;5.138;2023-07-31T12:46:03;10.97;;;6.00;;
77061;SDS011;65989;51.686;5.138;2023-07-31T12:48:29;9.45;;;5.93;;
77061;SDS011;65989;51.686;5.138;2023-07-31T12:50:54;11.13;;;6.27;;
77061;SDS011;65989;51.686;5.138;2023-07-31T12:53:19;10.43;;;6.30;;
77061;SDS011;65989;51.686;5.138;2023-07-31T12:55:44;12.63;;;5.85;;
77061;SDS011;65989;51.686;5.138;2023-07-31T12:58:10;10.37;;;6.30;;
77061;SDS011;65989;51.686;5.138;2023-07-31T13:00:35;10.60;;;6.17;;
77061;SDS011;65989;51.686;5.138;2023-07-31T13:03:00;13.00;;;6.60;;
77061;SDS011;65989;51.686;5.138;2023-07-31T13:05:26;10.90;;;6.27;;
77061;SDS011;65989;51.686;5.138;2023-07-31T13:07:52;9.88;;;6.22;;
77061;SDS011;65989;51.686;5.138;2023-07-31T13:10:17;10.73;;;6.40;;
77061;SDS011;65989;51.686;5.138;2023-07-31T13:12:42;13.43;;;6.87;;
77061;SDS011;65989;51.686;5.138;2023-07-31T13:15:08;11.67;;;6.47;;
77061;SDS011;65989;51.686;5.138;2023-07-31T13:17:33;11.40;;;6.03;;
77061;SDS011;65989;51.686;5.138;2023-07-31T13:19:58;9.73;;;6.00;;
77061;SDS011;65989;51.686;5.138;2023-07-31T13:22:24;13.00;;;6.17;;
77061;SDS011;65989;51.686;5.138;2023-07-31T13:24:49;12.87;;;6.13;;
77061;SDS011;65989;51.686;5.138;2023-07-31T13:27:14;13.43;;;6.57;;
77061;SDS011;65989;51.686;5.138;2023-07-31T13:29:44;16.20;;;6.40;;
77061;SDS011;65989;51.686;5.138;2023-07-31T13:32:10;11.18;;;6.32;;
77061;SDS011;65989;51.686;5.138;2023-07-31T13:34:35;14.50;;;6.37;;
77061;SDS011;65989;51.686;5.138;2023-07-31T13:37:00;14.33;;;6.20;;
77061;SDS011;65989;51.686;5.138;2023-07-31T13:39:26;15.00;;;5.90;;
77061;SDS011;65989;51.686;5.138;2023-07-31T13:41:51;12.33;;;5.90;;
77061;SDS011;65989;51.686;5.138;2023-07-31T13:44:16;27.20;;;7.30;;
77061;SDS011;65989;51.686;5.138;2023-07-31T13:46:41;12.00;;;5.90;;
77061;SDS011;65989;51.686;5.138;2023-07-31T13:49:06;12.13;;;6.33;;
77061;SDS011;65989;51.686;5.138;2023-07-31T13:51:32;16.40;;;7.33;;
77061;SDS011;65989;51.686;5.138;2023-07-31T13:53:57;12.27;;;6.57;;
77061;SDS011;65989;51.686;5.138;2023-07-31T13:56:22;12.17;;;6.33;;
77061;SDS011;65989;51.686;5.138;2023-07-31T13:58:47;12.63;;;6.77;;
77061;SDS011;65989;51.686;5.138;2023-07-31T14:01:13;13.73;;;7.13;;
77061;SDS011;65989;51.686;5.138;2023-07-31T14:03:38;12.67;;;7.13;;
77061;SDS011;65989;51.686;5.138;2023-07-31T14:06:03;12.03;;;6.77;;
77061;SDS011;65989;51.686;5.138;2023-07-31T14:08:29;13.88;;;7.43;;
77061;SDS011;65989;51.686;5.138;2023-07-31T14:10:54;11.07;;;6.60;;
77061;SDS011;65989;51.686;5.138;2023-07-31T14:13:19;15.10;;;7.30;;
77061;SDS011;65989;51.686;5.138;2023-07-31T14:15:45;14.33;;;7.70;;
77061;SDS011;65989;51.686;5.138;2023-07-31T14:18:10;15.53;;;7.77;;
77061;SDS011;65989;51.686;5.138;2023-07-31T14:20:35;15.50;;;7.30;;
77061;SDS011;65989;51.686;5.138;2023-07-31T14:23:01;14.23;;;7.33;;
77061;SDS011;65989;51.686;5.138;2023-07-31T14:25:26;14.48;;;7.18;;
77061;SDS011;65989;51.686;5.138;2023-07-31T14:27:51;14.73;;;7.20;;
77061;SDS011;65989;51.686;5.138;2023-07-31T14:30:17;13.63;;;7.40;;
77061;SDS011;65989;51.686;5.138;2023-07-31T14:32:43;14.27;;;7.88;;
77061;SDS011;65989;51.686;5.138;2023-07-31T14:35:08;15.60;;;7.77;;
77061;SDS011;65989;51.686;5.138;2023-07-31T14:37:37;13.33;;;7.63;;
77061;SDS011;65989;51.686;5.138;2023-07-31T14:40:03;13.52;;;7.30;;
77061;SDS011;65989;51.686;5.138;2023-07-31T14:42:29;12.40;;;6.80;;
77061;SDS011;65989;51.686;5.138;2023-07-31T14:44:54;13.43;;;6.37;;
77061;SDS011;65989;51.686;5.138;2023-07-31T14:47:19;11.43;;;6.30;;
77061;SDS011;65989;51.686;5.138;2023-07-31T14:49:44;12.87;;;6.27;;